Time;durP1;ratioP1;P1;durP2;ratioP2;P2;SDS_P1;SDS_P2;PMS_P1;PMS_P2;Temp;Humidity;BMP_temperature;BMP_pressure;BME280_temperature;BME280_humidity;BME280_pressure;Samples;Min_cycle;Max_cycle;Signal;HPM_P1;HPM_P2
2023/12/19 00:00:11;;;;;;;74.47;22.30;;;-2.60;99.90;;;;;;4194080;28;20348;-62
2023/12/19 00:02:13;;;;;;;97.77;23.10;;;-2.60;99.90;;;;;;4193982;28;20254;-62
2023/12/19 00:04:15;;;;;;;86.30;21.20;;;-2.70;99.90;;;;;;4194452;28;20291;-62
2023/12/19 00:06:16;;;;;;;85.40;22.83;;;-2.80;99.90;;;;;;4194195;28;20269;-62
2023/12/19 00:08:17;;;;;;;148.00;26.87;;;-2.80;99.90;;;;;;4194927;28;20278;-62
2023/12/19 00:10:18;;;;;;;172.63;29.40;;;-2.90;99.90;;;;;;4175814;28;20750;-62
2023/12/19 00:12:19;;;;;;;210.83;26.60;;;-3.00;99.90;;;;;;4194317;28;20265;-62
2023/12/19 00:14:21;;;;;;;185.87;26.73;;;-3.00;99.90;;;;;;4194756;28;20343;-63
2023/12/19 00:16:22;;;;;;;154.03;25.87;;;-3.00;99.90;;;;;;4193975;28;20327;-62
2023/12/19 00:18:24;;;;;;;111.30;23.53;;;-3.00;99.90;;;;;;4194754;28;20277;-62
2023/12/19 00:20:25;;;;;;;127.87;25.00;;;-3.00;99.90;;;;;;4194066;28;20269;-63
2023/12/19 00:22:27;;;;;;;149.37;26.07;;;-3.00;99.90;;;;;;4195164;28;20265;-62
2023/12/19 00:24:28;;;;;;;140.97;26.50;;;-3.10;99.90;;;;;;4193824;28;20300;-62
2023/12/19 00:26:29;;;;;;;141.60;26.77;;;-3.10;99.90;;;;;;4194971;28;20319;-63
2023/12/19 00:28:31;;;;;;;164.57;28.83;;;-3.10;99.90;;;;;;4193818;28;20273;-62
2023/12/19 00:30:33;;;;;;;96.47;22.33;;;-3.10;99.90;;;;;;4194651;28;20269;-62
2023/12/19 00:32:34;;;;;;;66.07;22.10;;;-3.10;99.90;;;;;;4175717;28;20741;-62
2023/12/19 00:34:35;;;;;;;72.53;23.03;;;-3.00;99.90;;;;;;4194698;28;20393;-62
2023/12/19 00:36:36;;;;;;;120.20;25.30;;;-3.00;99.90;;;;;;4193447;28;20270;-63
2023/12/19 00:38:38;;;;;;;96.57;22.90;;;-2.90;99.90;;;;;;4194492;28;20331;-62
2023/12/19 00:40:39;;;;;;;157.87;26.87;;;-2.90;99.90;;;;;;4194545;28;20335;-63
2023/12/19 00:42:41;;;;;;;85.83;23.30;;;-2.90;99.90;;;;;;4194253;28;20670;-62
2023/12/19 00:44:43;;;;;;;106.67;25.00;;;-2.90;99.90;;;;;;4194386;28;20347;-63
2023/12/19 00:46:44;;;;;;;77.67;22.80;;;-2.90;99.90;;;;;;4175937;28;20673;-62
2023/12/19 00:48:45;;;;;;;91.30;23.43;;;-2.90;99.90;;;;;;4194521;28;20327;-62
2023/12/19 00:50:47;;;;;;;96.40;25.10;;;-3.00;99.90;;;;;;4193889;28;20266;-62
2023/12/19 00:52:48;;;;;;;122.73;29.80;;;-2.90;99.90;;;;;;4194136;28;20331;-62
2023/12/19 00:54:49;;;;;;;83.63;23.47;;;-3.00;99.90;;;;;;4193324;28;20285;-62
2023/12/19 00:56:50;;;;;;;132.30;28.23;;;-2.90;99.90;;;;;;4194276;28;20323;-62
2023/12/19 00:58:52;;;;;;;75.27;24.37;;;-2.90;99.90;;;;;;4193717;28;20265;-63
2023/12/19 01:00:53;;;;;;;83.07;25.20;;;-2.90;99.90;;;;;;4194158;28;20311;-62
2023/12/19 01:02:54;;;;;;;98.67;24.97;;;-2.90;99.90;;;;;;4192877;28;20278;-62
2023/12/19 01:04:57;;;;;;;93.53;25.13;;;-2.90;99.90;;;;;;4192261;28;20333;-62
2023/12/19 01:06:58;;;;;;;81.80;25.80;;;-2.90;99.90;;;;;;4193481;28;20318;-62
2023/12/19 01:08:59;;;;;;;87.27;25.10;;;-2.90;99.90;;;;;;4193113;28;20269;-63
2023/12/19 01:11:00;;;;;;;77.63;24.67;;;-2.90;99.90;;;;;;4193691;28;20736;-62
2023/12/19 01:13:02;;;;;;;99.70;28.63;;;-2.90;99.90;;;;;;4194272;28;20281;-62
2023/12/19 01:15:03;;;;;;;106.50;27.30;;;-2.90;99.90;;;;;;4193535;28;20339;-62
2023/12/19 01:17:05;;;;;;;129.87;29.13;;;-2.90;99.90;;;;;;4192972;28;20351;-62
2023/12/19 01:19:09;;;;;;;98.47;27.80;;;-2.90;99.90;;;;;;4193577;28;20281;-62
2023/12/19 01:21:10;;;;;;;179.37;31.67;;;-2.80;99.90;;;;;;4192354;28;20327;-62
2023/12/19 01:23:12;;;;;;;124.47;31.27;;;-2.90;99.90;;;;;;4194263;28;20319;-62
2023/12/19 01:25:13;;;;;;;146.37;32.33;;;-2.90;99.90;;;;;;4193303;28;20299;-62
2023/12/19 01:27:14;;;;;;;115.07;29.17;;;-2.80;99.90;;;;;;4193065;28;20276;-62
2023/12/19 01:29:16;;;;;;;119.83;25.40;;;-2.90;99.90;;;;;;4175030;28;20324;-62
2023/12/19 01:31:17;;;;;;;140.93;25.60;;;-2.90;99.90;;;;;;4193015;28;20632;-61
2023/12/19 01:33:18;;;;;;;157.40;25.33;;;-2.90;99.90;;;;;;4192641;28;20273;-62
2023/12/19 01:35:19;;;;;;;191.70;28.67;;;-3.00;99.90;;;;;;4192980;28;20378;-61
2023/12/19 01:37:20;;;;;;;137.03;25.93;;;-3.10;99.90;;;;;;4193046;28;20262;-61
2023/12/19 01:39:22;;;;;;;214.90;26.47;;;-3.10;99.90;;;;;;4193354;28;20617;-61
2023/12/19 01:41:23;;;;;;;194.73;26.10;;;-3.20;99.90;;;;;;4193125;28;20342;-61
2023/12/19 01:43:24;;;;;;;316.83;33.17;;;-3.20;99.90;;;;;;4193777;28;20249;-61
2023/12/19 01:45:27;;;;;;;289.60;30.63;;;-3.20;99.90;;;;;;4193232;28;20835;-61
2023/12/19 01:47:28;;;;;;;295.07;32.87;;;-3.30;99.90;;;;;;4192761;28;20611;-61
2023/12/19 01:49:30;;;;;;;188.53;27.43;;;-3.30;99.90;;;;;;4192232;28;20266;-62
2023/12/19 01:51:31;;;;;;;218.73;30.00;;;-3.30;99.90;;;;;;4192599;28;20311;-61
2023/12/19 01:53:32;;;;;;;161.97;25.80;;;-3.30;99.90;;;;;;4175626;28;20347;-61
2023/12/19 01:55:34;;;;;;;170.20;25.70;;;-3.30;99.90;;;;;;4192660;28;20297;-61
2023/12/19 01:57:36;;;;;;;227.87;30.77;;;-3.30;99.90;;;;;;4192153;28;20269;-60
2023/12/19 01:59:38;;;;;;;204.63;29.90;;;-3.30;99.90;;;;;;4192460;28;20269;-61
2023/12/19 02:01:39;;;;;;;240.63;32.37;;;-3.30;99.90;;;;;;4193460;28;20299;-60
2023/12/19 02:03:42;;;;;;;159.60;26.60;;;-3.30;99.90;;;;;;4192175;28;20749;-62
2023/12/19 02:05:45;;;;;;;210.77;29.93;;;-3.30;99.90;;;;;;4174945;28;20335;-62
2023/12/19 02:07:48;;;;;;;184.87;28.10;;;-3.30;99.90;;;;;;4191638;28;21042;-61
2023/12/19 02:09:53;;;;;;;209.87;32.53;;;-3.30;99.90;;;;;;4193110;28;20258;-61
2023/12/19 02:11:54;;;;;;;200.83;29.60;;;-3.30;99.90;;;;;;4193063;28;20319;-61
2023/12/19 02:13:58;;;;;;;276.53;35.90;;;-3.30;99.90;;;;;;4192340;28;20285;-62
2023/12/19 02:15:59;;;;;;;213.33;32.27;;;-3.30;99.90;;;;;;4191925;28;20343;-62
2023/12/19 02:18:21;;;;;;;216.37;29.57;;;-3.30;99.90;;;;;;4192481;28;20270;-62
2023/12/19 02:20:22;;;;;;;231.43;32.07;;;-3.30;99.90;;;;;;4192196;28;20253;-62
2023/12/19 02:22:23;;;;;;;234.33;30.57;;;-3.30;99.90;;;;;;4192099;28;20769;-61
2023/12/19 02:24:24;;;;;;;190.87;31.73;;;-3.30;99.90;;;;;;4191988;28;20346;-62
2023/12/19 02:26:27;;;;;;;172.70;28.13;;;-3.30;99.90;;;;;;4192779;28;20318;-62
2023/12/19 02:28:28;;;;;;;314.37;36.07;;;-3.30;99.90;;;;;;4192805;28;20257;-62
2023/12/19 02:30:29;;;;;;;315.47;32.50;;;-3.40;99.90;;;;;;4192574;28;20632;-62
2023/12/19 02:32:34;;;;;;;259.23;30.97;;;-3.30;99.90;;;;;;4193062;28;20299;-62
2023/12/19 02:34:36;;;;;;;333.83;38.67;;;-3.40;99.90;;;;;;4191845;28;20257;-62
2023/12/19 02:36:37;;;;;;;305.13;35.73;;;-3.40;99.90;;;;;;4185128;28;20315;-62
2023/12/19 02:38:38;;;;;;;384.10;39.17;;;-3.50;99.90;;;;;;4191498;28;20266;-62
2023/12/19 02:40:39;;;;;;;230.03;28.17;;;-3.50;99.90;;;;;;4192559;28;20295;-62
2023/12/19 02:42:41;;;;;;;260.57;36.23;;;-3.60;99.90;;;;;;4191816;28;20318;-62
2023/12/19 02:44:43;;;;;;;225.17;25.77;;;-3.60;99.90;;;;;;4193104;28;20279;-62
2023/12/19 02:46:44;;;;;;;298.80;34.50;;;-3.70;99.90;;;;;;4191839;28;20323;-62
2023/12/19 02:48:45;;;;;;;209.20;24.80;;;-3.70;99.90;;;;;;4191707;28;20333;-62
2023/12/19 02:50:46;;;;;;;130.10;21.57;;;-3.70;99.90;;;;;;4192661;28;20261;-62
2023/12/19 02:52:47;;;;;;;159.73;23.53;;;-3.70;99.90;;;;;;4191908;28;20261;-62
2023/12/19 02:54:49;;;;;;;177.70;22.63;;;-3.80;99.90;;;;;;4192643;28;20838;-62
2023/12/19 02:56:50;;;;;;;118.70;18.57;;;-3.90;99.90;;;;;;4191914;28;20269;-62
2023/12/19 02:58:51;;;;;;;158.67;21.00;;;-3.90;99.90;;;;;;4174001;28;20286;-61
2023/12/19 03:00:52;;;;;;;175.93;23.60;;;-3.90;99.90;;;;;;4192280;28;20258;-62
2023/12/19 03:02:58;;;;;;;189.67;23.07;;;-3.90;99.90;;;;;;4191329;28;20320;-61
2023/12/19 03:04:59;;;;;;;208.83;22.77;;;-4.00;99.90;;;;;;4192360;28;20665;-62
2023/12/19 03:07:01;;;;;;;219.80;25.83;;;-4.00;99.90;;;;;;4192032;28;20269;-62
2023/12/19 03:09:02;;;;;;;166.40;23.97;;;-4.10;99.90;;;;;;4191595;28;20323;-61
2023/12/19 03:11:04;;;;;;;164.30;21.20;;;-4.00;99.90;;;;;;4192424;28;20253;-62
2023/12/19 03:13:05;;;;;;;187.50;21.60;;;-4.10;99.90;;;;;;4190673;28;20277;-62
2023/12/19 03:15:06;;;;;;;134.43;19.80;;;-4.10;99.90;;;;;;4192687;28;20858;-61
2023/12/19 03:17:07;;;;;;;180.63;20.27;;;-4.20;99.90;;;;;;4192070;28;20617;-62
2023/12/19 03:19:09;;;;;;;219.03;20.87;;;-4.20;99.90;;;;;;4192443;28;20311;-62
2023/12/19 03:21:10;;;;;;;259.87;28.03;;;-4.20;99.90;;;;;;4190798;28;20270;-62
2023/12/19 03:23:11;;;;;;;139.60;17.60;;;-4.30;99.90;;;;;;4192250;28;20625;-62
2023/12/19 03:25:12;;;;;;;131.73;17.67;;;-4.40;99.90;;;;;;4173733;28;20324;-62
2023/12/19 03:27:13;;;;;;;107.20;15.50;;;-4.40;99.90;;;;;;4174440;28;20353;-62
2023/12/19 03:29:15;;;;;;;212.27;20.67;;;-4.30;99.90;;;;;;4195269;28;20823;-61
2023/12/19 03:31:16;;;;;;;171.00;18.50;;;-4.40;99.90;;;;;;4194699;28;20296;-62
2023/12/19 03:33:18;;;;;;;85.80;14.87;;;-4.40;99.90;;;;;;4194592;28;20760;-61
2023/12/19 03:35:19;;;;;;;114.73;15.80;;;-4.40;99.90;;;;;;4194487;28;20305;-62
2023/12/19 03:37:20;;;;;;;93.28;15.20;;;-4.40;99.90;;;;;;4194554;28;20896;-61
2023/12/19 03:39:22;;;;;;;84.37;14.50;;;-4.30;99.90;;;;;;4195040;28;20090;-61
2023/12/19 03:41:23;;;;;;;58.97;14.23;;;-4.40;99.90;;;;;;4194855;28;20277;-61
2023/12/19 03:43:24;;;;;;;61.15;13.18;;;-4.40;99.90;;;;;;4195116;28;20269;-61
2023/12/19 03:45:25;;;;;;;55.03;12.98;;;-4.40;99.90;;;;;;4194730;28;20086;-61
2023/12/19 03:47:26;;;;;;;53.43;14.07;;;-4.40;99.90;;;;;;4193850;28;20032;-61
2023/12/19 03:49:28;;;;;;;58.60;11.57;;;-4.50;99.90;;;;;;4177447;28;20316;-61
2023/12/19 03:51:29;;;;;;;72.30;13.60;;;-4.50;99.90;;;;;;4194010;28;20335;-62
2023/12/19 03:53:30;;;;;;;137.40;17.67;;;-4.50;99.90;;;;;;4193742;28;20048;-61
2023/12/19 03:55:31;;;;;;;73.27;13.23;;;-4.60;99.90;;;;;;4194458;28;20354;-61
2023/12/19 03:57:32;;;;;;;187.37;21.50;;;-4.60;99.90;;;;;;4194498;28;20266;-62
2023/12/19 03:59:33;;;;;;;106.95;14.95;;;-4.60;99.90;;;;;;4194026;28;20277;-61
2023/12/19 04:01:45;;;;;;;157.50;15.80;;;-4.50;99.90;;;;;;4194938;28;20028;-62
2023/12/19 04:03:46;;;;;;;141.07;13.45;;;-4.60;99.90;;;;;;4193343;28;20033;-62
2023/12/19 04:05:47;;;;;;;172.10;17.40;;;-4.70;99.90;;;;;;4194059;28;20045;-62
2023/12/19 04:07:48;;;;;;;163.73;14.07;;;-4.70;99.90;;;;;;4194242;28;20277;-63
2023/12/19 04:09:50;;;;;;;200.23;17.50;;;-4.70;99.90;;;;;;4193795;28;20273;-62
2023/12/19 04:11:51;;;;;;;138.68;16.55;;;-4.70;99.90;;;;;;4194696;28;20169;-62
2023/12/19 04:13:52;;;;;;;111.43;14.23;;;-4.70;99.90;;;;;;4192920;28;20033;-61
2023/12/19 04:15:53;;;;;;;204.38;18.35;;;-4.60;99.90;;;;;;4194528;28;20301;-62
2023/12/19 04:17:54;;;;;;;53.37;10.67;;;-4.60;99.90;;;;;;4193426;28;20362;-61
2023/12/19 04:19:55;;;;;;;174.38;18.13;;;-4.50;99.90;;;;;;4193901;28;20330;-62
2023/12/19 04:21:57;;;;;;;63.78;12.35;;;-4.50;99.90;;;;;;4193926;28;20049;-61
2023/12/19 04:23:58;;;;;;;103.37;14.93;;;-4.40;99.90;;;;;;4193999;28;20037;-61
2023/12/19 04:26:00;;;;;;;124.47;14.55;;;-4.40;99.90;;;;;;4194571;28;20769;-61
2023/12/19 04:28:01;;;;;;;90.78;14.07;;;-4.40;99.90;;;;;;4194535;28;20032;-62
2023/12/19 04:30:02;;;;;;;24.67;10.73;;;-4.30;99.90;;;;;;4194550;28;20029;-61
2023/12/19 04:32:04;;;;;;;40.30;12.00;;;-4.30;99.90;;;;;;4193961;28;20735;-62
2023/12/19 04:34:05;;;;;;;57.47;13.27;;;-4.40;99.90;;;;;;4175833;28;20274;-60
2023/12/19 04:36:09;;;;;;;75.97;13.33;;;-4.40;99.90;;;;;;4193576;28;20296;-61
2023/12/19 04:38:10;;;;;;;55.40;14.05;;;-4.40;99.90;;;;;;4194141;28;20323;-61
2023/12/19 04:40:12;;;;;;;64.70;12.63;;;-4.40;99.90;;;;;;4194074;28;20465;-61
2023/12/19 04:42:17;;;;;;;66.38;11.80;;;-4.40;99.90;;;;;;4194342;28;20246;-62
2023/12/19 04:44:18;;;;;;;78.50;12.93;;;-4.40;99.90;;;;;;4193288;28;20449;-61
2023/12/19 04:46:19;;;;;;;129.63;13.20;;;-4.40;99.90;;;;;;4194003;28;20346;-62
2023/12/19 04:48:21;;;;;;;73.47;11.50;;;-4.40;99.90;;;;;;4193480;28;20369;-61
2023/12/19 04:50:22;;;;;;;50.20;12.52;;;-4.50;99.90;;;;;;4194056;28;20029;-62
2023/12/19 04:52:23;;;;;;;116.95;13.75;;;-4.50;99.90;;;;;;4192846;28;20037;-61
2023/12/19 04:54:24;;;;;;;97.40;16.08;;;-4.50;99.90;;;;;;4194149;28;20479;-62
2023/12/19 04:56:25;;;;;;;108.10;15.37;;;-4.50;99.90;;;;;;4193504;28;20040;-62
2023/12/19 04:58:27;;;;;;;65.68;14.27;;;-4.50;99.90;;;;;;4193867;28;20327;-62
2023/12/19 05:00:28;;;;;;;79.67;14.97;;;-4.50;99.90;;;;;;4193626;28;20025;-61
2023/12/19 05:02:30;;;;;;;51.55;12.45;;;-4.40;99.90;;;;;;4193230;28;20339;-61
2023/12/19 05:04:31;;;;;;;91.47;11.80;;;-4.40;99.90;;;;;;4193724;28;20028;-61
2023/12/19 05:06:33;;;;;;;69.63;11.60;;;-4.40;99.90;;;;;;4193256;28;20037;-61
2023/12/19 05:08:35;;;;;;;50.27;9.80;;;-4.40;99.90;;;;;;4193309;28;20265;-61
2023/12/19 05:10:36;;;;;;;53.43;10.17;;;-4.50;99.90;;;;;;4175081;28;20677;-62
2023/12/19 05:12:38;;;;;;;36.33;11.40;;;-4.50;99.90;;;;;;4193686;28;20265;-62
2023/12/19 05:14:39;;;;;;;39.53;10.23;;;-4.50;99.90;;;;;;4193541;28;20335;-62
2023/12/19 05:16:40;;;;;;;62.37;11.63;;;-4.50;99.90;;;;;;4193896;28;20297;-61
2023/12/19 05:18:42;;;;;;;38.27;10.23;;;-4.50;99.90;;;;;;4191547;28;20263;-61
2023/12/19 05:20:47;;;;;;;50.42;13.10;;;-4.50;99.90;;;;;;4193809;28;20265;-61
2023/12/19 05:22:48;;;;;;;83.57;11.30;;;-4.50;99.90;;;;;;4192648;28;20024;-61
2023/12/19 05:24:50;;;;;;;66.38;12.02;;;-4.50;99.90;;;;;;4193476;28;20269;-61
2023/12/19 05:26:51;;;;;;;57.33;10.88;;;-4.50;99.90;;;;;;4192954;28;20442;-61
2023/12/19 05:28:54;;;;;;;42.50;11.27;;;-4.50;99.90;;;;;;4193161;28;20028;-61
2023/12/19 05:30:56;;;;;;;43.00;12.17;;;-4.50;99.90;;;;;;4174561;28;20668;-61
2023/12/19 05:32:58;;;;;;;66.55;12.68;;;-4.50;99.90;;;;;;4191320;28;20281;-62
2023/12/19 05:34:59;;;;;;;161.07;15.20;;;-4.50;99.90;;;;;;4192505;28;20024;-62
2023/12/19 05:37:00;;;;;;;44.40;12.82;;;-4.50;99.90;;;;;;4192450;28;20082;-62
2023/12/19 05:39:02;;;;;;;39.80;14.48;;;-4.50;99.90;;;;;;4191816;28;20044;-62
2023/12/19 05:41:04;;;;;;;79.90;15.27;;;-4.50;99.90;;;;;;4193160;28;20066;-61
2023/12/19 05:43:05;;;;;;;31.65;11.98;;;-4.50;99.90;;;;;;4193250;28;20097;-61
2023/12/19 05:45:07;;;;;;;61.97;13.57;;;-4.50;99.90;;;;;;4190999;28;20033;-62
2023/12/19 05:47:08;;;;;;;53.57;12.40;;;-4.50;99.90;;;;;;4175005;28;20445;-62
2023/12/19 05:49:09;;;;;;;83.50;15.48;;;-4.50;99.90;;;;;;4190569;28;20312;-62
2023/12/19 05:51:11;;;;;;;44.47;11.73;;;-4.50;99.90;;;;;;4191850;28;20134;-62
2023/12/19 05:53:12;;;;;;;48.37;11.23;;;-4.50;99.90;;;;;;4191433;28;20032;-62
2023/12/19 05:55:13;;;;;;;37.63;12.23;;;-4.50;99.90;;;;;;4192462;28;20261;-62
2023/12/19 05:57:14;;;;;;;44.78;12.38;;;-4.50;99.90;;;;;;4191802;28;20074;-59
2023/12/19 05:59:15;;;;;;;28.80;12.85;;;-4.50;99.90;;;;;;4193071;28;20021;-63
2023/12/19 06:01:17;;;;;;;32.17;11.77;;;-4.50;99.90;;;;;;4192497;28;20057;-60
2023/12/19 06:03:18;;;;;;;40.08;11.82;;;-4.50;99.90;;;;;;4191940;28;20048;-61
2023/12/19 06:05:19;;;;;;;38.47;11.43;;;-4.40;99.90;;;;;;4192750;28;20032;-61
2023/12/19 06:07:21;;;;;;;40.45;11.02;;;-4.40;99.90;;;;;;4192256;28;20447;-61
2023/12/19 06:09:23;;;;;;;84.20;14.65;;;-4.40;99.90;;;;;;4192226;28;20059;-61
2023/12/19 06:11:26;;;;;;;41.60;12.77;;;-4.40;99.90;;;;;;4191880;28;20040;-62
2023/12/19 06:13:29;;;;;;;40.53;12.00;;;-4.30;99.90;;;;;;4193178;28;20322;-61
2023/12/19 06:15:30;;;;;;;24.75;10.57;;;-4.40;99.90;;;;;;4191578;28;20078;-61
2023/12/19 06:17:31;;;;;;;48.23;14.87;;;-4.40;99.90;;;;;;4193027;28;20034;-61
2023/12/19 06:19:33;;;;;;;73.53;12.10;;;-4.40;99.90;;;;;;4192401;28;20717;-60
2023/12/19 06:21:34;;;;;;;117.80;20.98;;;-4.40;99.90;;;;;;4192951;28;20390;-61
2023/12/19 06:23:35;;;;;;;110.63;14.25;;;-4.30;99.90;;;;;;4192248;28;20431;-61
2023/12/19 06:25:38;;;;;;;94.13;14.52;;;-4.40;99.90;;;;;;4192593;28;20032;-61
2023/12/19 06:27:40;;;;;;;60.20;12.57;;;-4.50;99.90;;;;;;4191509;28;20435;-61
2023/12/19 06:29:44;;;;;;;132.05;16.15;;;-4.60;99.90;;;;;;4192929;28;20697;-61
2023/12/19 06:31:45;;;;;;;82.28;12.85;;;-4.60;99.90;;;;;;4191754;28;20029;-61
2023/12/19 06:33:46;;;;;;;75.40;12.10;;;-4.70;99.90;;;;;;4192737;28;20047;-62
2023/12/19 06:35:51;;;;;;;76.43;12.68;;;-4.70;99.90;;;;;;4191659;28;20193;-62
2023/12/19 06:37:53;;;;;;;39.90;10.45;;;-4.70;99.90;;;;;;4192089;28;20056;-60
2023/12/19 06:39:54;;;;;;;59.70;11.50;;;-4.70;99.90;;;;;;4192310;28;20028;-61
2023/12/19 06:41:55;;;;;;;52.15;13.57;;;-4.80;99.90;;;;;;4192088;28;20405;-61
2023/12/19 06:43:56;;;;;;;35.40;11.02;;;-4.70;99.90;;;;;;4193045;28;20800;-61
2023/12/19 06:45:57;;;;;;;53.92;13.52;;;-4.70;99.90;;;;;;4192436;28;20074;-62
2023/12/19 06:48:01;;;;;;;40.53;12.85;;;-4.70;99.90;;;;;;4192641;28;20404;-60
2023/12/19 06:50:06;;;;;;;59.35;13.40;;;-4.70;99.90;;;;;;4191798;28;20044;-61
2023/12/19 06:52:07;;;;;;;65.82;13.60;;;-4.70;99.90;;;;;;4192174;28;20044;-61
2023/12/19 06:54:08;;;;;;;74.13;13.60;;;-4.70;99.90;;;;;;4192099;28;20029;-61
2023/12/19 06:56:09;;;;;;;74.03;14.02;;;-4.70;99.90;;;;;;4192764;28;20056;-61
2023/12/19 06:58:11;;;;;;;49.47;13.35;;;-4.70;99.90;;;;;;4191514;28;20044;-60
2023/12/19 07:00:12;;;;;;;95.20;14.05;;;-4.70;99.90;;;;;;4192097;28;20094;-62
2023/12/19 07:02:14;;;;;;;72.82;13.73;;;-4.70;99.90;;;;;;4192375;28;20453;-60
2023/12/19 07:04:15;;;;;;;92.50;14.48;;;-4.70;99.90;;;;;;4195483;28;20032;-60
2023/12/19 07:06:16;;;;;;;34.25;12.45;;;-4.70;99.90;;;;;;4195689;28;20024;-61
2023/12/19 07:08:17;;;;;;;48.38;11.82;;;-4.70;99.90;;;;;;4195162;28;20028;-60
2023/12/19 07:10:19;;;;;;;41.65;11.52;;;-4.70;99.90;;;;;;4195170;28;20040;-62
2023/12/19 07:12:20;;;;;;;74.30;14.38;;;-4.70;99.90;;;;;;4195609;28;20074;-60
2023/12/19 07:14:21;;;;;;;53.30;12.60;;;-4.70;99.90;;;;;;4177675;28;20032;-62
2023/12/19 07:16:25;;;;;;;40.63;11.98;;;-4.70;99.90;;;;;;4195157;28;20044;-62
2023/12/19 07:18:26;;;;;;;64.25;12.73;;;-4.60;99.90;;;;;;4195586;28;20451;-61
2023/12/19 07:20:27;;;;;;;45.63;13.73;;;-4.60;99.90;;;;;;4194686;28;20032;-62
2023/12/19 07:22:28;;;;;;;63.78;12.05;;;-4.60;99.90;;;;;;4196013;28;20043;-62
2023/12/19 07:24:30;;;;;;;57.30;13.88;;;-4.60;99.90;;;;;;4194684;28;20037;-62
2023/12/19 07:26:31;;;;;;;78.97;13.52;;;-4.50;99.90;;;;;;4195710;28;20040;-62
2023/12/19 07:28:32;;;;;;;49.75;12.98;;;-4.50;99.90;;;;;;4194798;28;20032;-62
2023/12/19 07:30:34;;;;;;;37.25;12.57;;;-4.40;99.90;;;;;;4195488;28;20036;-62
2023/12/19 07:32:35;;;;;;;70.57;14.20;;;-4.40;99.90;;;;;;4194416;28;20048;-62
2023/12/19 07:34:36;;;;;;;27.13;11.48;;;-4.30;99.90;;;;;;4195303;28;20080;-62
2023/12/19 07:36:37;;;;;;;54.77;12.17;;;-4.30;99.90;;;;;;4176978;28;20107;-62
2023/12/19 07:38:39;;;;;;;41.83;12.55;;;-4.30;99.90;;;;;;4195435;28;20291;-62
2023/12/19 07:40:40;;;;;;;59.97;13.25;;;-4.30;99.90;;;;;;4193908;28;20070;-61
2023/12/19 07:42:42;;;;;;;51.23;13.97;;;-4.30;99.90;;;;;;4195031;28;20089;-62
2023/12/19 07:44:43;;;;;;;63.50;14.83;;;-4.30;99.90;;;;;;4195569;28;20257;-62
2023/12/19 07:46:44;;;;;;;87.87;14.60;;;-4.20;99.90;;;;;;4194193;28;20323;-62
2023/12/19 07:48:45;;;;;;;84.65;13.82;;;-4.20;99.90;;;;;;4194946;28;20266;-60
2023/12/19 07:50:47;;;;;;;39.13;12.90;;;-4.20;99.90;;;;;;4194279;28;20117;-60
2023/12/19 07:52:49;;;;;;;43.80;12.52;;;-4.10;99.90;;;;;;4195046;28;20598;-60
2023/12/19 07:54:51;;;;;;;38.55;13.40;;;-4.10;99.90;;;;;;4194419;28;20637;-61
2023/12/19 07:56:52;;;;;;;36.28;13.77;;;-4.10;99.90;;;;;;4195006;28;20040;-61
2023/12/19 07:58:53;;;;;;;83.07;16.20;;;-4.00;99.90;;;;;;4194447;28;20021;-61
2023/12/19 08:00:54;;;;;;;62.30;12.23;;;-4.00;99.90;;;;;;4195099;28;20262;-61
2023/12/19 08:02:56;;;;;;;37.93;10.97;;;-4.10;99.90;;;;;;4193601;28;20273;-61
2023/12/19 08:04:57;;;;;;;41.08;12.15;;;-4.10;99.90;;;;;;4195083;28;20318;-61
2023/12/19 08:06:58;;;;;;;28.50;11.20;;;-4.10;99.90;;;;;;4194081;28;20439;-61
2023/12/19 08:08:59;;;;;;;38.63;11.00;;;-4.10;99.90;;;;;;4194948;28;20334;-60
2023/12/19 08:11:00;;;;;;;62.93;11.57;;;-4.10;99.90;;;;;;4194009;28;20281;-61
2023/12/19 08:13:01;;;;;;;58.33;13.13;;;-4.20;99.90;;;;;;4193160;28;20692;-61
2023/12/19 08:15:03;;;;;;;62.60;13.03;;;-4.20;99.90;;;;;;4194888;28;20274;-63
2023/12/19 08:17:04;;;;;;;49.37;11.97;;;-4.20;99.90;;;;;;4176162;28;20298;-61
2023/12/19 08:19:05;;;;;;;53.67;12.40;;;-4.20;99.90;;;;;;4194519;28;20261;-61
2023/12/19 08:21:06;;;;;;;53.40;11.98;;;-4.30;99.90;;;;;;4194341;28;20283;-61
2023/12/19 08:23:08;;;;;;;54.17;12.50;;;-4.30;99.90;;;;;;4194168;28;20032;-60
2023/12/19 08:25:10;;;;;;;90.07;14.07;;;-4.30;99.90;;;;;;4193711;28;20033;-60
2023/12/19 08:27:11;;;;;;;54.03;12.50;;;-4.30;99.90;;;;;;4194697;28;20708;-61
2023/12/19 08:29:12;;;;;;;63.63;11.87;;;-4.30;99.90;;;;;;4193957;28;20168;-60
2023/12/19 08:31:13;;;;;;;87.73;13.93;;;-4.30;99.90;;;;;;4194302;28;20327;-61
2023/12/19 08:33:14;;;;;;;36.40;10.80;;;-4.30;99.90;;;;;;4193531;28;20323;-61
2023/12/19 08:35:18;;;;;;;36.37;10.60;;;-4.30;99.90;;;;;;4194796;28;20783;-61
2023/12/19 08:37:19;;;;;;;71.57;11.17;;;-4.20;99.90;;;;;;4193944;28;20285;-61
2023/12/19 08:39:20;;;;;;;62.20;13.27;;;-4.30;99.90;;;;;;4194181;28;20309;-61
2023/12/19 08:41:21;;;;;;;40.45;10.75;;;-4.40;99.90;;;;;;4193357;28;20416;-62
2023/12/19 08:43:23;;;;;;;32.80;11.05;;;-4.40;99.90;;;;;;4193891;28;20094;-61
2023/12/19 08:45:26;;;;;;;34.78;11.93;;;-4.40;99.90;;;;;;4194716;28;20499;-61
2023/12/19 08:47:27;;;;;;;52.80;12.45;;;-4.40;99.90;;;;;;4193592;28;20436;-59
2023/12/19 08:49:28;;;;;;;44.80;12.73;;;-4.40;99.90;;;;;;4175632;28;20071;-61
2023/12/19 08:51:30;;;;;;;39.92;13.00;;;-4.40;99.90;;;;;;4193282;28;20044;-59
2023/12/19 08:53:31;;;;;;;33.45;14.35;;;-4.40;99.90;;;;;;4194225;28;20439;-61
2023/12/19 08:55:32;;;;;;;33.22;13.40;;;-4.30;99.90;;;;;;4193957;28;20698;-61
2023/12/19 08:57:44;;;;;;;42.15;13.20;;;-4.30;99.90;;;;;;4193722;28;20102;-61
2023/12/19 08:59:45;;;;;;;40.53;12.53;;;-4.30;99.90;;;;;;4193753;28;20024;-61
2023/12/19 09:01:46;;;;;;;37.07;14.53;;;-4.30;99.90;;;;;;4193277;28;20254;-61
2023/12/19 09:03:48;;;;;;;57.50;15.93;;;-4.20;99.90;;;;;;4193003;28;20282;-60
2023/12/19 09:05:52;;;;;;;30.13;13.80;;;-4.20;99.90;;;;;;4193518;28;20036;-61
2023/12/19 09:07:53;;;;;;;42.03;12.57;;;-4.20;99.90;;;;;;4193599;28;20738;-60
2023/12/19 09:09:55;;;;;;;35.40;12.67;;;-4.20;99.90;;;;;;4193838;28;20277;-61
2023/12/19 09:11:57;;;;;;;38.97;13.63;;;-4.10;99.90;;;;;;4193186;28;20270;-62
2023/12/19 09:13:58;;;;;;;39.87;13.70;;;-4.10;99.90;;;;;;4194213;28;20304;-62
2023/12/19 09:16:04;;;;;;;36.33;12.33;;;-4.00;99.90;;;;;;4192686;28;20273;-62
2023/12/19 09:18:05;;;;;;;45.30;13.77;;;-4.00;99.90;;;;;;4193449;28;20335;-61
2023/12/19 09:20:07;;;;;;;40.07;15.73;;;-4.00;99.90;;;;;;4192677;28;20036;-62
2023/12/19 09:22:08;;;;;;;41.27;15.60;;;-3.90;99.90;;;;;;4192880;28;20315;-61
2023/12/19 09:24:10;;;;;;;40.00;14.95;;;-3.90;99.90;;;;;;4192414;28;20274;-60
2023/12/19 09:26:11;;;;;;;53.67;14.83;;;-3.90;99.90;;;;;;4192665;28;20020;-61
2023/12/19 09:28:12;;;;;;;59.60;12.87;;;-3.80;99.90;;;;;;4193148;28;20266;-62
2023/12/19 09:30:16;;;;;;;40.77;14.23;;;-3.80;99.90;;;;;;4192947;28;20265;-62
2023/12/19 09:32:18;;;;;;;40.00;14.33;;;-3.80;99.90;;;;;;4175270;28;20317;-60
2023/12/19 09:34:19;;;;;;;41.27;14.37;;;-3.80;99.90;;;;;;4191828;28;20315;-61
2023/12/19 09:36:22;;;;;;;39.27;14.60;;;-3.70;99.90;;;;;;4192566;28;20346;-61
2023/12/19 09:38:23;;;;;;;34.83;13.17;;;-3.70;99.90;;;;;;4192635;28;20311;-61
2023/12/19 09:40:29;;;;;;;34.37;13.63;;;-3.70;99.90;;;;;;4192606;28;20278;-62
2023/12/19 09:42:31;;;;;;;29.77;13.70;;;-3.70;99.90;;;;;;4191992;28;20269;-60
2023/12/19 09:44:32;;;;;;;37.73;14.03;;;-3.60;99.90;;;;;;4192728;28;20270;-61
2023/12/19 09:46:34;;;;;;;29.83;13.57;;;-3.50;99.90;;;;;;4192300;28;20273;-61
2023/12/19 09:48:36;;;;;;;38.57;14.00;;;-3.40;99.90;;;;;;4192295;28;20265;-61
2023/12/19 09:50:44;;;;;;;41.83;13.77;;;-3.40;99.90;;;;;;4191667;28;20277;-62
2023/12/19 09:52:47;;;;;;;39.03;13.70;;;-3.40;99.90;;;;;;4191927;28;20262;-62
2023/12/19 09:54:52;;;;;;;32.80;14.03;;;-3.40;99.90;;;;;;4192262;28;20307;-62
2023/12/19 09:56:56;;;;;;;36.23;13.73;;;-3.30;99.90;;;;;;4192510;28;20281;-61
2023/12/19 09:59:00;;;;;;;40.70;13.17;;;-3.30;99.90;;;;;;4192822;28;20277;-61
2023/12/19 10:01:01;;;;;;;35.23;13.87;;;-3.20;99.90;;;;;;4192648;28;20265;-61
2023/12/19 10:03:03;;;;;;;32.43;14.17;;;-3.20;99.90;;;;;;4192697;28;20331;-61
2023/12/19 10:05:05;;;;;;;31.77;14.53;;;-3.10;99.90;;;;;;4191856;28;20347;-62
2023/12/19 10:07:06;;;;;;;39.00;12.93;;;-2.90;99.90;;;;;;4192530;28;20672;-60
2023/12/19 10:09:08;;;;;;;40.20;14.17;;;-2.90;99.90;;;;;;4192153;28;20753;-61
2023/12/19 10:11:16;;;;;;;35.23;14.10;;;-2.90;99.90;;;;;;4191883;28;20334;-61
2023/12/19 10:13:32;;;;;;;34.03;14.03;;;-3.00;99.90;;;;;;4191541;28;20338;-61